Time;durP1;ratioP1;P1;durP2;ratioP2;P2;SDS_P1;SDS_P2;PMS_P1;PMS_P2;Temp;Humidity;BMP_temperature;BMP_pressure;BME280_temperature;BME280_humidity;BME280_pressure;Samples;Min_cycle;Max_cycle;Signal;HPM_P1;HPM_P2
2022/09/26 00:01:41;;;;;;;11.67;6.67;;;18.00;66.30;;;;;;5028293;28;20197;-76
2022/09/26 00:04:17;;;;;;;14.00;7.30;;;18.00;66.40;;;;;;5029428;28;20191;-76
2022/09/26 00:06:52;;;;;;;12.80;7.60;;;18.00;66.60;;;;;;5024436;28;20930;-76
2022/09/26 00:09:21;;;;;;;16.60;7.17;;;17.90;66.60;;;;;;5030036;28;20192;-76
2022/09/26 00:11:50;;;;;;;14.93;6.87;;;17.90;66.70;;;;;;5020848;28;20227;-76
2022/09/26 00:14:21;;;;;;;14.97;7.07;;;17.90;66.80;;;;;;5031935;28;20204;-76
2022/09/26 00:16:49;;;;;;;14.77;6.80;;;17.90;66.90;;;;;;5026323;28;20672;-76
2022/09/26 00:19:18;;;;;;;15.97;6.90;;;17.90;67.00;;;;;;5027068;28;20282;-76
2022/09/26 00:21:46;;;;;;;17.77;7.23;;;17.90;67.00;;;;;;5020883;28;20816;-76
2022/09/26 00:24:16;;;;;;;13.53;7.13;;;17.90;67.10;;;;;;5022092;28;20987;-76
2022/09/26 00:26:45;;;;;;;16.30;7.27;;;17.90;67.20;;;;;;5026329;28;20204;-76
2022/09/26 00:29:14;;;;;;;15.93;8.07;;;17.90;67.50;;;;;;5033965;28;20227;-76
2022/09/26 00:31:44;;;;;;;12.50;6.60;;;17.90;67.60;;;;;;5019936;28;20653;-76
2022/09/26 00:34:13;;;;;;;15.63;6.23;;;17.90;67.50;;;;;;5030399;28;20369;-74
2022/09/26 00:36:41;;;;;;;10.63;6.53;;;17.90;67.60;;;;;;5027827;28;20204;-76
2022/09/26 00:39:12;;;;;;;15.00;7.00;;;17.90;67.70;;;;;;5025578;28;20197;-76
2022/09/26 00:41:43;;;;;;;15.13;7.40;;;17.90;67.70;;;;;;5023051;28;20191;-77
2022/09/26 00:44:45;;;;;;;14.00;6.87;;;17.90;67.60;;;;;;5026328;28;20188;-76
2022/09/26 00:47:25;;;;;;;15.13;6.67;;;17.90;67.70;;;;;;5033025;28;20191;-76
2022/09/26 00:49:57;;;;;;;17.27;6.73;;;17.90;67.60;;;;;;5021535;28;20215;-74
2022/09/26 00:52:29;;;;;;;14.07;6.83;;;17.90;67.60;;;;;;5030033;28;20605;-75
2022/09/26 00:55:01;;;;;;;14.30;7.23;;;17.90;67.50;;;;;;5024437;28;20258;-75
2022/09/26 00:57:34;;;;;;;15.70;6.70;;;18.00;68.30;;;;;;5021451;28;20195;-75
2022/09/26 01:00:07;;;;;;;18.27;7.17;;;17.90;67.30;;;;;;5014303;28;20270;-75
2022/09/26 01:02:36;;;;;;;14.67;7.37;;;18.00;67.40;;;;;;5018389;28;20199;-75
2022/09/26 01:05:06;;;;;;;13.00;7.30;;;18.00;67.40;;;;;;5026313;28;20255;-75
2022/09/26 01:07:35;;;;;;;12.80;7.20;;;18.00;67.30;;;;;;5026929;28;20309;-75
2022/09/26 01:10:05;;;;;;;17.23;7.53;;;18.00;67.20;;;;;;5017125;28;20251;-75
2022/09/26 01:12:37;;;;;;;14.00;7.73;;;18.00;67.10;;;;;;5026104;28;20195;-75
2022/09/26 01:15:08;;;;;;;13.90;7.70;;;18.00;67.00;;;;;;5023986;28;20223;-75
2022/09/26 01:17:38;;;;;;;13.00;7.30;;;18.10;67.00;;;;;;5028376;28;20239;-74
2022/09/26 01:20:25;;;;;;;13.97;7.37;;;18.10;66.90;;;;;;5010588;28;20231;-75
2022/09/26 01:23:22;;;;;;;13.60;7.40;;;18.10;66.90;;;;;;5019678;28;20238;-75
2022/09/26 01:26:14;;;;;;;15.00;7.80;;;18.10;66.90;;;;;;5034896;28;20242;-75
2022/09/26 01:29:17;;;;;;;11.40;7.20;;;18.10;67.10;;;;;;5022320;28;21088;-75
2022/09/26 01:34:49;;;;;;;18.13;7.90;;;18.00;67.10;;;;;;5025194;28;20219;-76
2022/09/26 01:37:26;;;;;;;15.87;7.17;;;18.00;67.10;;;;;;5029887;28;20200;-75
2022/09/26 01:40:10;;;;;;;15.67;7.57;;;18.00;67.20;;;;;;5027461;28;20237;-75
2022/09/26 01:42:46;;;;;;;12.80;7.30;;;18.00;67.30;;;;;;5031154;28;20215;-77
2022/09/26 01:45:19;;;;;;;14.30;7.90;;;18.00;67.50;;;;;;5030782;28;20187;-76
2022/09/26 01:47:55;;;;;;;13.33;7.47;;;18.00;67.80;;;;;;5012826;28;20250;-75
2022/09/26 01:50:31;;;;;;;12.80;7.20;;;17.90;67.80;;;;;;5021107;28;20223;-75
2022/09/26 01:53:03;;;;;;;11.77;7.33;;;17.90;67.90;;;;;;5015104;28;20192;-75
2022/09/26 01:55:37;;;;;;;12.93;7.77;;;18.00;67.90;;;;;;5025282;28;20192;-75
2022/09/26 01:58:09;;;;;;;14.97;7.47;;;18.00;68.10;;;;;;5025647;28;20708;-75
2022/09/26 02:00:41;;;;;;;17.53;8.60;;;17.90;68.40;;;;;;5021944;28;20653;-75
2022/09/26 02:03:15;;;;;;;13.03;7.03;;;17.90;68.30;;;;;;5018726;28;20190;-75
2022/09/26 02:05:48;;;;;;;14.53;7.60;;;17.90;68.30;;;;;;5026716;28;20191;-75
2022/09/26 02:08:20;;;;;;;14.93;7.30;;;17.90;68.30;;;;;;5027810;28;20254;-75
2022/09/26 02:10:51;;;;;;;15.07;7.97;;;18.00;68.40;;;;;;5015635;28;20212;-75
2022/09/26 02:13:22;;;;;;;13.87;7.30;;;17.90;68.30;;;;;;5024589;28;20230;-75
2022/09/26 02:15:56;;;;;;;16.13;7.93;;;17.90;68.30;;;;;;5031102;28;20226;-75
2022/09/26 02:18:31;;;;;;;14.13;7.33;;;18.00;68.40;;;;;;5032393;28;20602;-75
2022/09/26 02:21:03;;;;;;;13.17;7.53;;;17.90;68.50;;;;;;5015914;28;20222;-75
2022/09/26 02:23:31;;;;;;;12.13;7.43;;;17.90;68.50;;;;;;5017007;28;20211;-75
2022/09/26 02:26:00;;;;;;;13.67;7.60;;;18.00;68.60;;;;;;5029499;28;20198;-75
2022/09/26 02:28:28;;;;;;;17.13;8.17;;;18.00;68.70;;;;;;5017507;28;20286;-74
2022/09/26 02:31:00;;;;;;;13.63;7.20;;;17.90;68.60;;;;;;5014861;28;20219;-74
2022/09/26 02:33:30;;;;;;;16.27;7.77;;;18.00;68.70;;;;;;5028915;28;20280;-74
2022/09/26 02:35:59;;;;;;;16.23;8.20;;;18.00;68.70;;;;;;5019119;28;20238;-74
2022/09/26 02:38:28;;;;;;;17.07;7.30;;;18.00;68.60;;;;;;5023462;28;20219;-74
2022/09/26 02:41:04;;;;;;;15.83;7.30;;;18.00;68.60;;;;;;5027158;28;20286;-75
2022/09/26 02:43:56;;;;;;;12.13;7.57;;;18.00;68.60;;;;;;5012031;28;20375;-74
2022/09/26 02:46:53;;;;;;;11.03;6.83;;;18.00;68.70;;;;;;5010932;28;20203;-75
2022/09/26 02:49:58;;;;;;;12.07;7.57;;;18.10;68.70;;;;;;5026234;28;20573;-75
2022/09/26 02:52:36;;;;;;;13.67;8.07;;;18.10;68.60;;;;;;5021344;28;20266;-75
2022/09/26 02:55:19;;;;;;;15.93;6.97;;;18.10;68.40;;;;;;5024228;28;20237;-74
2022/09/26 02:57:54;;;;;;;13.53;7.73;;;18.10;68.40;;;;;;5022427;28;20308;-74
2022/09/26 03:00:27;;;;;;;12.33;7.00;;;18.10;68.40;;;;;;5014580;28;20211;-74
2022/09/26 03:03:01;;;;;;;16.77;7.40;;;18.10;68.40;;;;;;5020061;28;20187;-75
2022/09/26 03:05:32;;;;;;;14.07;7.70;;;18.10;68.30;;;;;;5012563;28;20194;-75
2022/09/26 03:08:07;;;;;;;12.73;7.43;;;18.10;68.40;;;;;;5013571;28;20189;-75
2022/09/26 03:10:37;;;;;;;12.13;7.20;;;18.10;68.40;;;;;;5027916;28;20243;-74
2022/09/26 03:13:08;;;;;;;14.67;7.50;;;18.10;68.50;;;;;;5015591;28;20652;-74
2022/09/26 03:15:39;;;;;;;12.23;7.27;;;18.10;68.60;;;;;;5027858;28;20195;-74
2022/09/26 03:18:11;;;;;;;12.47;7.53;;;18.10;68.70;;;;;;5009972;28;20200;-75
2022/09/26 03:20:41;;;;;;;12.27;6.97;;;18.00;68.60;;;;;;5019913;28;20187;-75
2022/09/26 03:23:09;;;;;;;12.27;7.10;;;18.10;68.80;;;;;;5028137;28;20300;-75
2022/09/26 03:25:38;;;;;;;12.43;7.13;;;18.00;68.80;;;;;;5021894;28;20215;-74
2022/09/26 03:28:06;;;;;;;15.03;7.93;;;18.00;68.80;;;;;;5022962;28;20231;-74
2022/09/26 03:30:35;;;;;;;14.30;7.90;;;18.00;69.00;;;;;;5025493;28;20282;-74
2022/09/26 03:33:03;;;;;;;15.60;8.20;;;18.00;69.00;;;;;;5010246;28;20570;-75
2022/09/26 03:35:31;;;;;;;14.17;7.30;;;18.00;69.20;;;;;;5026819;28;20262;-75
2022/09/26 03:38:01;;;;;;;14.63;7.80;;;18.00;69.40;;;;;;5021469;28;20269;-75
2022/09/26 03:40:29;;;;;;;13.90;7.40;;;18.00;69.50;;;;;;5027427;28;20245;-75
2022/09/26 03:42:57;;;;;;;12.10;6.87;;;17.90;69.50;;;;;;5026696;28;20238;-75
2022/09/26 03:45:27;;;;;;;17.17;7.90;;;17.90;69.60;;;;;;5030472;28;20668;-74
2022/09/26 03:47:56;;;;;;;19.50;8.00;;;17.90;69.70;;;;;;5012279;28;20199;-75
2022/09/26 03:50:25;;;;;;;15.13;7.67;;;17.90;69.80;;;;;;5015838;28;20281;-74
2022/09/26 03:52:53;;;;;;;14.40;7.83;;;17.90;69.80;;;;;;5016380;28;20193;-74
2022/09/26 03:55:22;;;;;;;12.43;7.33;;;17.90;70.00;;;;;;5028320;28;20191;-74
2022/09/26 03:57:51;;;;;;;13.90;7.17;;;17.90;70.00;;;;;;5026210;28;20246;-74
2022/09/26 04:00:19;;;;;;;13.80;7.30;;;17.80;70.00;;;;;;5023506;28;20196;-75
2022/09/26 04:02:47;;;;;;;14.10;7.77;;;17.90;70.20;;;;;;5018723;28;20235;-75
2022/09/26 04:05:16;;;;;;;14.27;7.57;;;17.80;70.10;;;;;;5019900;28;20656;-74
2022/09/26 04:07:45;;;;;;;16.90;8.07;;;17.80;70.40;;;;;;5023929;28;20226;-75
2022/09/26 04:10:14;;;;;;;15.87;8.27;;;17.80;70.70;;;;;;5025814;28;20244;-74
2022/09/26 04:12:45;;;;;;;17.97;7.83;;;17.80;70.80;;;;;;5029657;28;20184;-75
2022/09/26 04:15:13;;;;;;;15.47;7.33;;;17.80;70.80;;;;;;5031128;28;20241;-74
2022/09/26 04:17:41;;;;;;;17.67;8.45;;;17.70;70.80;;;;;;5029266;28;20478;-75
2022/09/26 04:20:10;;;;;;;16.00;7.83;;;17.70;71.90;;;;;;5028366;28;20640;-74
2022/09/26 04:22:39;;;;;;;12.87;7.70;;;17.70;71.70;;;;;;5024010;28;20253;-74
2022/09/26 04:25:09;;;;;;;15.70;7.87;;;17.70;71.60;;;;;;5026864;28;20195;-76
2022/09/26 04:27:37;;;;;;;19.07;8.50;;;17.70;71.60;;;;;;5023508;28;20220;-76
2022/09/26 04:30:08;;;;;;;13.10;7.47;;;17.70;71.60;;;;;;5032142;28;20215;-74
2022/09/26 04:32:36;;;;;;;13.60;7.47;;;17.70;71.60;;;;;;5031366;28;20242;-74
2022/09/26 04:35:05;;;;;;;15.07;8.10;;;17.70;71.60;;;;;;5029980;28;20322;-74
2022/09/26 04:37:35;;;;;;;14.63;7.60;;;17.70;71.60;;;;;;5025534;28;20235;-74
2022/09/26 04:40:04;;;;;;;16.60;8.13;;;17.70;71.60;;;;;;5028848;28;20653;-74
2022/09/26 04:42:35;;;;;;;12.83;8.23;;;17.70;71.70;;;;;;5029052;28;20249;-74
2022/09/26 04:45:05;;;;;;;14.47;8.07;;;17.70;71.60;;;;;;5029276;28;20207;-74
2022/09/26 04:47:34;;;;;;;13.50;7.83;;;17.80;71.70;;;;;;5027659;28;20281;-74
2022/09/26 04:50:03;;;;;;;15.27;7.53;;;17.80;71.90;;;;;;5031856;28;20262;-74
2022/09/26 04:52:31;;;;;;;16.90;7.53;;;17.80;72.00;;;;;;5028897;28;20262;-74
2022/09/26 04:54:59;;;;;;;22.07;8.73;;;17.70;72.00;;;;;;5019647;28;20192;-74
2022/09/26 04:57:27;;;;;;;16.17;8.10;;;17.80;72.10;;;;;;5029981;28;20200;-75
2022/09/26 04:59:56;;;;;;;13.97;8.37;;;17.70;72.10;;;;;;5024223;28;20211;-75
2022/09/26 05:02:24;;;;;;;16.53;8.33;;;17.80;72.10;;;;;;5028144;28;20236;-74
2022/09/26 05:04:58;;;;;;;19.80;7.87;;;17.80;72.20;;;;;;5026893;28;20203;-75
2022/09/26 05:07:30;;;;;;;15.73;7.93;;;17.80;72.30;;;;;;5028262;28;20192;-74
2022/09/26 05:09:58;;;;;;;26.27;9.23;;;17.80;72.50;;;;;;5034618;28;20761;-74
2022/09/26 05:12:26;;;;;;;24.97;9.03;;;17.80;72.70;;;;;;5030899;28;20250;-75
2022/09/26 05:14:55;;;;;;;15.73;8.03;;;17.90;72.90;;;;;;5033724;28;20195;-74
2022/09/26 05:17:24;;;;;;;16.40;8.17;;;17.90;73.20;;;;;;5028629;28;20196;-74
2022/09/26 05:19:53;;;;;;;17.87;9.10;;;17.90;73.00;;;;;;5031477;28;20199;-74
2022/09/26 05:22:22;;;;;;;18.80;10.00;;;18.00;73.10;;;;;;5028130;28;20286;-74
2022/09/26 05:27:35;;;;;;;19.90;9.03;;;17.90;72.00;;;;;;5032536;28;20660;-74
2022/09/26 05:30:04;;;;;;;18.13;9.47;;;17.90;71.90;;;;;;5026923;28;20566;-75
2022/09/26 05:32:33;;;;;;;14.83;9.00;;;18.00;71.50;;;;;;5034683;28;20242;-75
2022/09/26 05:35:04;;;;;;;23.00;8.87;;;17.90;71.30;;;;;;5024513;28;20232;-75
2022/09/26 05:37:32;;;;;;;17.80;9.33;;;17.90;71.00;;;;;;5018350;28;20255;-74
2022/09/26 05:42:46;;;;;;;15.50;8.50;;;18.10;70.90;;;;;;5024916;28;20228;-74
2022/09/26 05:45:15;;;;;;;19.90;9.10;;;18.10;70.90;;;;;;5037327;28;20274;-73
2022/09/26 05:47:47;;;;;;;18.23;8.30;;;18.20;70.90;;;;;;5027252;28;20192;-74
2022/09/26 05:50:21;;;;;;;19.20;9.57;;;18.20;70.70;;;;;;5026426;28;20212;-73
2022/09/26 05:52:49;;;;;;;19.17;8.60;;;18.30;70.70;;;;;;5034077;28;20222;-74
2022/09/26 05:55:17;;;;;;;16.10;8.30;;;18.30;70.50;;;;;;5030009;28;20283;-74
2022/09/26 05:57:51;;;;;;;15.10;8.90;;;18.40;70.30;;;;;;5028749;28;20196;-74
2022/09/26 06:00:19;;;;;;;14.87;7.70;;;18.40;70.00;;;;;;5031964;28;20192;-73
2022/09/26 06:02:55;;;;;;;18.00;8.60;;;18.50;69.40;;;;;;5030957;28;20200;-74
2022/09/26 06:05:25;;;;;;;17.87;7.53;;;18.60;69.30;;;;;;5027289;28;20653;-74
2022/09/26 06:07:53;;;;;;;17.17;8.40;;;18.60;69.00;;;;;;5033192;28;20286;-73
2022/09/26 06:10:22;;;;;;;17.73;8.97;;;18.70;68.90;;;;;;5027553;28;20239;-74
2022/09/26 06:12:50;;;;;;;16.40;7.50;;;18.70;68.60;;;;;;5028414;28;20212;-74
2022/09/26 06:15:19;;;;;;;21.17;8.30;;;18.80;68.10;;;;;;5027892;28;20227;-75
2022/09/26 06:17:47;;;;;;;19.47;8.57;;;18.90;67.80;;;;;;5025886;28;20188;-75
2022/09/26 06:20:16;;;;;;;21.33;8.47;;;18.90;66.60;;;;;;5029060;28;20223;-74
2022/09/26 06:22:45;;;;;;;15.97;8.30;;;19.00;66.60;;;;;;5026391;28;20336;-74
2022/09/26 06:25:14;;;;;;;18.57;9.00;;;19.00;66.70;;;;;;5027845;28;20254;-74
2022/09/26 06:27:42;;;;;;;15.70;7.70;;;19.10;66.90;;;;;;5033247;28;20191;-74
2022/09/26 06:30:11;;;;;;;19.60;8.20;;;19.20;66.70;;;;;;5032353;28;20734;-74
2022/09/26 06:32:40;;;;;;;14.35;7.93;;;19.20;66.00;;;;;;5028902;28;20856;-74
2022/09/26 06:35:09;;;;;;;18.40;8.40;;;19.30;64.70;;;;;;5023461;28;20191;-75
2022/09/26 06:37:37;;;;;;;14.13;7.97;;;19.40;65.00;;;;;;5025505;28;20219;-74
2022/09/26 06:40:10;;;;;;;16.73;8.43;;;19.40;65.00;;;;;;5018220;28;20208;-72
2022/09/26 06:42:39;;;;;;;16.67;8.73;;;19.40;65.00;;;;;;5024339;28;20200;-73
2022/09/26 06:45:09;;;;;;;19.47;7.97;;;19.50;64.70;;;;;;5030300;28;20668;-74
2022/09/26 06:47:37;;;;;;;19.20;8.37;;;19.60;64.70;;;;;;5026524;28;20309;-73
2022/09/26 06:50:07;;;;;;;18.23;7.30;;;19.70;65.00;;;;;;5026988;28;20200;-73
2022/09/26 06:52:35;;;;;;;20.90;7.37;;;19.70;64.80;;;;;;5025176;28;20227;-73
2022/09/26 06:55:06;;;;;;;15.87;7.60;;;19.80;64.60;;;;;;5030373;28;20645;-73
2022/09/26 06:57:39;;;;;;;17.17;6.57;;;19.90;64.40;;;;;;5024545;28;20211;-74
2022/09/26 07:00:09;;;;;;;29.80;6.83;;;20.00;64.40;;;;;;5025392;28;20660;-73
2022/09/26 07:02:37;;;;;;;12.50;6.50;;;20.10;63.90;;;;;;5021493;28;20629;-75
2022/09/26 07:05:06;;;;;;;12.43;6.43;;;20.10;63.60;;;;;;5035277;28;20264;-74
2022/09/26 07:07:41;;;;;;;14.77;7.18;;;20.20;63.00;;;;;;5039330;28;20852;-74
2022/09/26 07:10:10;;;;;;;12.73;5.35;;;20.30;62.10;;;;;;5024975;28;20245;-75
2022/09/26 07:12:42;;;;;;;12.83;6.73;;;20.40;62.10;;;;;;5022316;28;20313;-74
2022/09/26 07:15:12;;;;;;;12.15;5.40;;;20.50;61.60;;;;;;5025638;28;20207;-75
2022/09/26 07:17:49;;;;;;;12.00;5.53;;;20.50;61.20;;;;;;5029183;28;20187;-74
2022/09/26 07:20:19;;;;;;;17.42;5.50;;;20.60;60.90;;;;;;5028700;28;20275;-74
2022/09/26 07:22:48;;;;;;;13.13;5.23;;;20.60;60.80;;;;;;5028564;28;20230;-74
2022/09/26 07:25:16;;;;;;;10.07;5.37;;;20.70;60.40;;;;;;5026038;28;20608;-74
2022/09/26 07:27:55;;;;;;;10.80;4.78;;;20.70;59.70;;;;;;5027609;28;20199;-75
2022/09/26 07:30:25;;;;;;;8.17;4.60;;;20.90;59.50;;;;;;5018555;28;20778;-75
2022/09/26 07:32:59;;;;;;;10.57;5.28;;;20.90;59.30;;;;;;5027715;28;20227;-74
2022/09/26 07:35:27;;;;;;;11.13;4.82;;;21.00;58.80;;;;;;5029284;28;20303;-74
2022/09/26 07:37:57;;;;;;;12.40;4.68;;;21.00;58.50;;;;;;5025202;28;20222;-74
2022/09/26 07:40:25;;;;;;;10.25;4.38;;;21.10;58.20;;;;;;5025103;28;20285;-74
2022/09/26 07:42:59;;;;;;;10.18;4.63;;;21.10;58.60;;;;;;5026912;28;20192;-72
2022/09/26 07:51:18;;;;;;;6.47;3.83;;;21.40;58.00;;;;;;5027362;28;20216;-73
2022/09/26 07:53:46;;;;;;;9.55;4.35;;;21.50;57.10;;;;;;5029310;28;20199;-73
2022/09/26 07:56:15;;;;;;;7.45;4.10;;;21.60;56.70;;;;;;5026894;28;20661;-74
2022/09/26 07:58:45;;;;;;;7.32;4.25;;;21.70;56.90;;;;;;5031213;28;20196;-73
2022/09/26 08:01:15;;;;;;;10.68;4.40;;;21.70;56.20;;;;;;5026253;28;20243;-73
2022/09/26 08:03:46;;;;;;;12.10;3.75;;;21.80;56.50;;;;;;5033639;28;20184;-73
2022/09/26 08:06:19;;;;;;;8.57;3.72;;;21.90;56.10;;;;;;5025670;28;20698;-73
2022/09/26 08:08:48;;;;;;;11.52;4.50;;;22.00;55.90;;;;;;5018079;28;20188;-74
2022/09/26 08:11:19;;;;;;;10.20;3.83;;;22.10;55.60;;;;;;5030281;28;20199;-72
2022/09/26 08:13:49;;;;;;;7.90;3.53;;;22.10;55.60;;;;;;5034582;28;20226;-73
2022/09/26 08:16:19;;;;;;;7.03;3.70;;;22.20;55.80;;;;;;5030745;28;20250;-74
2022/09/26 08:18:47;;;;;;;10.52;3.53;;;22.30;54.80;;;;;;5033792;28;20188;-73
2022/09/26 08:21:16;;;;;;;8.43;4.25;;;22.40;54.80;;;;;;5032378;28;20254;-73
2022/09/26 08:23:46;;;;;;;8.18;4.03;;;22.40;54.90;;;;;;5027932;28;20649;-73
2022/09/26 08:26:14;;;;;;;17.58;4.68;;;22.50;54.40;;;;;;5025831;28;20192;-73
2022/09/26 08:28:42;;;;;;;5.82;3.97;;;22.60;54.10;;;;;;5024347;28;20216;-75
2022/09/26 08:31:12;;;;;;;12.05;4.30;;;22.60;54.30;;;;;;5033699;28;20255;-73
2022/09/26 08:33:40;;;;;;;7.75;4.00;;;22.70;54.10;;;;;;5029147;28;20192;-74
2022/09/26 08:36:13;;;;;;;7.63;3.97;;;22.70;52.80;;;;;;5027599;28;20224;-73
2022/09/26 08:38:41;;;;;;;7.20;3.95;;;22.80;52.70;;;;;;5030410;28;20200;-74
2022/09/26 08:41:28;;;;;;;7.90;3.83;;;22.90;53.00;;;;;;5030819;28;20195;-73
2022/09/26 08:44:09;;;;;;;8.32;3.65;;;23.00;52.90;;;;;;5027429;28;20285;-73
2022/09/26 08:46:50;;;;;;;7.30;3.13;;;23.00;50.90;;;;;;5029281;28;20234;-72
2022/09/26 08:49:41;;;;;;;5.47;3.10;;;23.10;50.60;;;;;;5033330;28;20223;-74
2022/09/26 08:52:37;;;;;;;5.07;3.05;;;23.20;50.10;;;;;;5026026;28;20270;-74
2022/09/26 08:55:20;;;;;;;6.25;2.63;;;23.20;50.50;;;;;;5030537;28;20196;-74
2022/09/26 08:57:52;;;;;;;7.10;2.88;;;23.30;49.70;;;;;;5033149;28;20223;-73
2022/09/26 09:00:23;;;;;;;5.88;2.70;;;23.30;49.20;;;;;;5028077;28;20241;-74
2022/09/26 09:03:09;;;;;;;5.28;2.78;;;23.40;49.50;;;;;;5025805;28;20231;-73
2022/09/26 09:05:40;;;;;;;5.80;3.00;;;23.50;50.00;;;;;;5026598;28;20199;-74
2022/09/26 09:08:13;;;;;;;4.45;2.90;;;23.60;50.50;;;;;;5033571;28;20196;-73
2022/09/26 09:10:46;;;;;;;6.00;2.78;;;23.70;50.20;;;;;;5033516;28;20227;-73
2022/09/26 09:13:26;;;;;;;7.68;2.60;;;23.70;50.00;;;;;;5035670;28;20243;-74
2022/09/26 09:16:16;;;;;;;5.10;2.67;;;23.80;49.50;;;;;;5034579;28;20644;-74
2022/09/26 09:18:54;;;;;;;5.18;2.55;;;23.90;47.70;;;;;;5021083;28;20200;-74
2022/09/26 09:21:31;;;;;;;7.15;2.70;;;24.00;48.70;;;;;;5028856;28;20187;-74
2022/09/26 09:24:17;;;;;;;8.10;2.45;;;24.00;46.90;;;;;;5028669;28;20240;-74
2022/09/26 09:27:03;;;;;;;4.25;2.70;;;24.10;47.30;;;;;;5022802;28;20194;-74
2022/09/26 09:30:10;;;;;;;5.82;2.30;;;24.20;47.30;;;;;;5026962;28;20556;-75
2022/09/26 09:32:50;;;;;;;5.93;2.53;;;24.30;47.30;;;;;;5033079;28;20303;-74
2022/09/26 09:35:28;;;;;;;7.38;2.38;;;24.30;46.80;;;;;;5026647;28;20638;-75
2022/09/26 09:37:57;;;;;;;10.05;3.30;;;24.30;47.00;;;;;;5027461;28;20195;-75
2022/09/26 09:40:31;;;;;;;5.97;3.15;;;24.40;47.10;;;;;;5030080;28;20195;-73
2022/09/26 09:43:03;;;;;;;5.68;2.67;;;24.50;47.50;;;;;;5030917;28;20197;-75
2022/09/26 09:45:40;;;;;;;5.68;2.70;;;24.50;46.50;;;;;;5029300;28;20191;-74
2022/09/26 09:48:11;;;;;;;4.78;2.67;;;24.60;46.60;;;;;;5029379;28;20231;-74
2022/09/26 09:50:50;;;;;;;4.80;2.60;;;24.60;46.50;;;;;;5023134;28;20204;-74
2022/09/26 09:53:36;;;;;;;5.65;2.95;;;24.70;47.00;;;;;;5028160;28;20314;-74
2022/09/26 09:56:16;;;;;;;4.38;2.35;;;24.80;47.40;;;;;;5031901;28;20227;-74
2022/09/26 09:59:02;;;;;;;5.80;2.03;;;24.80;46.90;;;;;;5029439;28;20222;-75
2022/09/26 10:01:35;;;;;;;6.75;2.55;;;24.80;46.10;;;;;;5021337;28;20192;-74
2022/09/26 10:04:12;;;;;;;3.10;2.10;;;24.90;45.80;;;;;;5017222;28;20241;-74
2022/09/26 10:06:43;;;;;;;6.80;2.10;;;25.00;45.80;;;;;;5032851;28;20693;-76
2022/09/26 10:09:20;;;;;;;6.03;2.33;;;25.10;45.90;;;;;;5031300;28;20199;-75
2022/09/26 10:12:13;;;;;;;4.30;2.75;;;25.10;45.40;;;;;;5025527;28;20592;-74
2022/09/26 10:14:47;;;;;;;3.80;2.35;;;25.20;45.20;;;;;;5025443;28;20246;-75
2022/09/26 10:17:20;;;;;;;7.07;2.40;;;25.20;45.50;;;;;;5028731;28;20246;-75
2022/09/26 10:19:49;;;;;;;6.85;2.20;;;25.30;45.90;;;;;;5020436;28;20234;-76
2022/09/26 10:22:24;;;;;;;5.95;2.10;;;25.40;45.80;;;;;;5024792;28;20640;-74
2022/09/26 10:25:00;;;;;;;5.00;2.50;;;25.40;45.80;;;;;;5027963;28;20282;-76
2022/09/26 10:27:35;;;;;;;2.70;1.73;;;25.50;45.80;;;;;;5042305;28;20195;-75
2022/09/26 10:30:20;;;;;;;6.07;2.28;;;25.50;45.10;;;;;;5025285;28;20621;-75
2022/09/26 10:32:52;;;;;;;6.63;2.28;;;25.60;45.70;;;;;;5012192;28;20212;-76
2022/09/26 10:35:27;;;;;;;4.38;2.17;;;25.60;45.60;;;;;;5022405;28;20235;-74
2022/09/26 10:38:01;;;;;;;4.97;2.20;;;25.70;45.70;;;;;;5031330;28;20195;-75
2022/09/26 10:40:45;;;;;;;3.47;2.15;;;25.70;45.90;;;;;;5031693;28;20830;-74
2022/09/26 10:43:27;;;;;;;6.68;1.92;;;25.70;46.00;;;;;;5029855;28;20192;-76
2022/09/26 10:46:03;;;;;;;5.88;2.22;;;25.70;45.60;;;;;;5023286;28;20192;-75
2022/09/26 10:48:47;;;;;;;4.93;2.03;;;25.70;45.80;;;;;;5031936;28;20190;-74
2022/09/26 10:51:23;;;;;;;4.35;2.00;;;25.70;46.20;;;;;;5031138;28;20200;-74
2022/09/26 10:54:00;;;;;;;7.95;2.40;;;25.70;46.30;;;;;;5026365;28;20802;-74
2022/09/26 10:56:32;;;;;;;3.83;2.10;;;25.70;46.50;;;;;;5029074;28;20648;-74
2022/09/26 10:59:09;;;;;;;4.18;2.30;;;25.70;46.80;;;;;;5030156;28;20191;-74
2022/09/26 11:01:41;;;;;;;4.03;1.95;;;25.60;46.40;;;;;;5027603;28;20632;-74
2022/09/26 11:05:55;;;;;;;4.63;2.20;;;25.60;46.20;;;;;;5030213;28;20242;-73
2022/09/26 11:07:08;;;;;;;4.32;2.20;;;25.60;46.40;;;;;;5026641;28;20204;-74
2022/09/26 11:09:38;;;;;;;7.63;1.98;;;25.60;46.70;;;;;;5031638;28;20549;-74
2022/09/26 11:12:25;;;;;;;3.58;2.00;;;25.60;46.70;;;;;;5030904;28;20297;-74
2022/09/26 11:14:56;;;;;;;6.18;2.20;;;25.60;46.70;;;;;;5030759;28;20207;-74
2022/09/26 11:17:44;;;;;;;4.07;2.42;;;25.60;46.90;;;;;;5029753;28;20200;-75
2022/09/26 11:20:20;;;;;;;5.70;2.42;;;25.60;47.00;;;;;;5024888;28;20207;-74
2022/09/26 11:22:54;;;;;;;5.50;2.15;;;25.60;47.30;;;;;;5029250;28;20672;-74
2022/09/26 11:25:28;;;;;;;7.28;2.30;;;25.70;47.50;;;;;;5031121;28;20187;-73
2022/09/26 11:28:05;;;;;;;4.57;2.17;;;25.70;47.50;;;;;;5031021;28;20219;-74
2022/09/26 11:30:39;;;;;;;4.20;2.20;;;25.70;47.50;;;;;;5023693;28;20238;-75
2022/09/26 11:33:12;;;;;;;4.00;2.20;;;25.70;47.40;;;;;;5026570;28;20208;-75
2022/09/26 11:35:50;;;;;;;5.05;2.17;;;25.80;47.30;;;;;;5018546;28;20227;-74
2022/09/26 11:38:37;;;;;;;5.07;2.22;;;25.80;47.50;;;;;;5035450;28;20231;-74
2022/09/26 11:41:35;;;;;;;7.72;2.42;;;25.80;47.60;;;;;;5033646;28;20199;-74
2022/09/26 11:44:20;;;;;;;5.13;2.00;;;25.80;47.60;;;;;;5027594;28;20653;-75
2022/09/26 11:47:03;;;;;;;7.15;2.00;;;25.90;47.70;;;;;;5023925;28;20200;-75
2022/09/26 11:50:08;;;;;;;3.88;2.08;;;25.90;47.60;;;;;;5027682;28;20233;-76
2022/09/26 11:52:48;;;;;;;4.45;2.28;;;25.90;47.80;;;;;;5030815;28;20246;-75
2022/09/26 11:55:23;;;;;;;4.10;2.33;;;25.90;47.50;;;;;;5029937;28;20269;-75
2022/09/26 11:58:02;;;;;;;6.15;1.70;;;25.90;47.70;;;;;;5031396;28;20219;-75
2022/09/26 12:00:40;;;;;;;3.70;1.98;;;25.90;47.60;;;;;;5028909;28;20203;-74
2022/09/26 12:03:55;;;;;;;5.53;2.50;;;25.90;47.70;;;;;;5035307;28;20243;-75
2022/09/26 12:06:32;;;;;;;4.82;2.42;;;26.00;47.80;;;;;;5012589;28;20206;-74
2022/09/26 12:09:36;;;;;;;7.47;2.58;;;25.90;47.60;;;;;;5031424;28;20187;-77
2022/09/26 12:12:14;;;;;;;3.88;2.47;;;25.90;47.30;;;;;;5013108;28;20253;-77
2022/09/26 12:15:01;;;;;;;3.65;2.20;;;25.90;47.50;;;;;;5032740;28;20215;-79
2022/09/26 12:17:43;;;;;;;5.55;2.60;;;25.90;47.40;;;;;;5024702;28;20238;-77
2022/09/26 12:20:30;;;;;;;3.97;2.38;;;25.90;47.40;;;;;;5032932;28;20192;-76
2022/09/26 12:23:07;;;;;;;7.00;2.50;;;26.00;47.50;;;;;;5016628;28;20656;-76
2022/09/26 12:25:47;;;;;;;3.97;2.20;;;26.00;47.50;;;;;;5032933;28;20249;-78
2022/09/26 12:28:30;;;;;;;6.93;2.47;;;26.00;47.60;;;;;;5022916;28;20192;-77
2022/09/26 12:31:08;;;;;;;3.42;2.20;;;26.00;47.30;;;;;;5029369;28;20199;-77
2022/09/26 12:33:57;;;;;;;8.30;2.60;;;26.10;47.30;;;;;;5029649;28;20253;-77
2022/09/26 12:36:39;;;;;;;4.10;2.20;;;26.10;47.00;;;;;;5028664;28;20366;-77
2022/09/26 12:39:36;;;;;;;3.90;2.00;;;26.20;47.10;;;;;;5033460;28;20196;-77
2022/09/26 12:42:17;;;;;;;4.95;2.35;;;26.20;47.20;;;;;;5027435;28;20226;-76
2022/09/26 12:44:59;;;;;;;4.05;2.20;;;26.40;47.40;;;;;;5031670;28;20760;-78
2022/09/26 12:47:55;;;;;;;5.07;2.35;;;26.50;47.30;;;;;;5031204;28;20295;-77
2022/09/26 12:50:36;;;;;;;6.70;2.92;;;26.50;47.00;;;;;;5023550;28;20265;-78
2022/09/26 12:53:30;;;;;;;5.32;1.95;;;26.50;46.80;;;;;;5029765;28;20199;-76
2022/09/26 12:56:07;;;;;;;4.50;2.20;;;26.60;46.90;;;;;;5030293;28;20211;-76
2022/09/26 12:58:54;;;;;;;5.13;2.42;;;26.60;46.60;;;;;;5032188;28;20223;-77
2022/09/26 13:01:36;;;;;;;6.28;2.40;;;26.60;46.80;;;;;;5027206;28;20199;-77
2022/09/26 13:04:37;;;;;;;7.97;2.10;;;26.60;46.70;;;;;;5029619;28;20993;-77
2022/09/26 13:07:15;;;;;;;4.25;2.28;;;26.60;46.40;;;;;;5020924;28;20236;-76
2022/09/26 13:10:14;;;;;;;5.15;2.10;;;26.60;46.40;;;;;;5027464;28;20233;-78
2022/09/26 13:13:09;;;;;;;6.45;2.95;;;26.60;46.40;;;;;;5024061;28;20196;-76
2022/09/26 13:15:46;;;;;;;3.13;1.92;;;26.70;46.30;;;;;;5024879;28;21827;-77
2022/09/26 13:18:19;;;;;;;6.45;2.25;;;26.70;46.70;;;;;;5029165;28;20531;-79
2022/09/26 13:20:58;;;;;;;3.58;2.22;;;26.70;45.90;;;;;;5030977;28;20195;-78
2022/09/26 13:23:31;;;;;;;7.97;2.17;;;26.70;46.10;;;;;;5031002;28;20216;-78
2022/09/26 13:26:03;;;;;;;3.95;2.00;;;26.80;46.20;;;;;;5028380;28;20266;-78
2022/09/26 13:28:37;;;;;;;4.68;2.60;;;26.90;46.30;;;;;;5026443;28;20528;-78
2022/09/26 13:31:15;;;;;;;5.70;2.00;;;27.00;45.90;;;;;;5027825;28;20649;-79
2022/09/26 13:33:48;;;;;;;4.72;2.30;;;27.10;46.20;;;;;;5024498;28;20219;-79